createdAt,value
2023-02-07T00:01:58.304Z,101165.30
2023-02-07T00:04:27.078Z,101172.67
2023-02-07T00:06:55.647Z,101169.88
2023-02-07T00:09:24.788Z,101169.82
2023-02-07T00:11:53.789Z,101176.23
2023-02-07T00:14:22.387Z,101178.20
2023-02-07T00:16:51.242Z,101182.25
2023-02-07T00:19:20.143Z,101181.61
2023-02-07T00:21:48.997Z,101171.02
2023-02-07T00:24:18.243Z,101168.26
2023-02-07T00:26:47.751Z,101170.89
2023-02-07T00:29:16.628Z,101181.45
2023-02-07T00:31:47.053Z,101186.52
2023-02-07T00:34:16.007Z,101186.46
2023-02-07T00:36:44.870Z,101186.98
2023-02-07T00:39:16.313Z,101187.98
2023-02-07T00:41:46.270Z,101192.41
2023-02-07T00:44:15.501Z,101194.03
2023-02-07T00:46:45.415Z,101208.33
2023-02-07T00:49:14.187Z,101212.73
2023-02-07T00:51:43.177Z,101210.02
2023-02-07T00:54:12.324Z,101208.86
2023-02-07T00:56:40.990Z,101209.52
2023-02-07T00:59:09.855Z,101206.46
2023-02-07T01:01:39.170Z,101201.08
2023-02-07T01:04:07.869Z,101200.64
2023-02-07T01:06:37.381Z,101195.29
2023-02-07T01:09:06.985Z,101193.27
2023-02-07T01:11:35.675Z,101186.13
2023-02-07T01:14:04.768Z,101175.58
2023-02-07T01:16:36.958Z,101163.49
2023-02-07T01:19:09.116Z,101156.40
2023-02-07T01:21:38.543Z,101152.35
2023-02-07T01:24:08.770Z,101152.88
2023-02-07T01:26:39.116Z,101142.48
2023-02-07T01:29:08.692Z,101137.05
2023-02-07T01:31:37.451Z,101132.81
2023-02-07T01:34:06.734Z,101131.67
2023-02-07T01:36:35.445Z,101133.95
2023-02-07T01:39:05.353Z,101134.52
2023-02-07T01:41:36.768Z,101125.35
2023-02-07T01:44:09.089Z,101123.95
2023-02-07T01:46:38.916Z,101123.48
2023-02-07T01:49:13.904Z,101128.52
2023-02-07T01:51:50.112Z,101124.61
2023-02-07T01:54:20.651Z,101126.89
2023-02-07T01:56:56.798Z,101120.23
2023-02-07T01:59:26.884Z,101108.75
2023-02-07T02:01:55.749Z,101105.83
2023-02-07T02:04:24.498Z,101104.69
2023-02-07T02:06:54.153Z,101110.54
2023-02-07T02:09:23.149Z,101107.85
2023-02-07T02:12:10.884Z,101108.71
2023-02-07T02:15:08.212Z,101109.80
2023-02-07T02:18:08.537Z,101108.45
2023-02-07T02:21:05.524Z,101101.46
2023-02-07T02:23:34.574Z,101104.92
2023-02-07T02:26:19.758Z,101114.94
2023-02-07T02:28:51.823Z,101115.23
2023-02-07T02:31:58.213Z,101117.89
2023-02-07T02:34:50.735Z,101125.70
2023-02-07T02:37:40.722Z,101131.55
2023-02-07T02:40:33.679Z,101125.14
2023-02-07T02:43:14.188Z,101120.52
2023-02-07T02:45:50.117Z,101116.96
2023-02-07T02:48:19.784Z,101111.39
2023-02-07T02:50:49.803Z,101109.09
2023-02-07T02:53:18.623Z,101108.28
2023-02-07T02:56:25.330Z,101112.73
2023-02-07T02:59:00.022Z,101117.11
2023-02-07T03:01:51.536Z,101122.60
2023-02-07T03:04:20.753Z,101125.10
2023-02-07T03:07:12.783Z,101126.46
2023-02-07T03:10:40.050Z,101119.58
2023-02-07T03:13:31.793Z,101119.30
2023-02-07T03:16:23.978Z,101118.16
2023-02-07T03:18:59.283Z,101114.16
2023-02-07T03:21:44.142Z,101116.70
2023-02-07T03:24:27.213Z,101121.22
2023-02-07T03:27:00.127Z,101118.58
2023-02-07T03:29:31.165Z,101123.07
2023-02-07T03:32:05.167Z,101128.02
2023-02-07T03:34:44.018Z,101119.17
2023-02-07T03:37:22.717Z,101125.54
2023-02-07T03:39:52.228Z,101126.52
2023-02-07T03:42:53.367Z,101122.59
2023-02-07T03:45:23.098Z,101129.58
2023-02-07T03:47:51.601Z,101131.80
2023-02-07T03:50:20.318Z,101127.85
2023-02-07T03:52:49.399Z,101133.54
2023-02-07T03:55:19.274Z,101136.14
2023-02-07T03:57:48.263Z,101140.09
2023-02-07T04:00:17.712Z,101140.98
2023-02-07T04:02:46.394Z,101140.36
2023-02-07T04:05:16.082Z,101137.27
2023-02-07T04:07:45.028Z,101135.47
2023-02-07T04:10:13.595Z,101135.86
2023-02-07T04:12:42.854Z,101143.65
2023-02-07T04:15:11.856Z,101143.88
2023-02-07T04:17:40.546Z,101149.02
2023-02-07T04:20:10.845Z,101146.44
2023-02-07T04:22:39.988Z,101147.33
2023-02-07T04:25:08.789Z,101149.15
2023-02-07T04:27:37.721Z,101150.39
2023-02-07T04:30:07.714Z,101150.27
2023-02-07T04:32:36.196Z,101149.33
2023-02-07T04:35:05.018Z,101153.23
2023-02-07T04:37:34.045Z,101149.98
2023-02-07T04:40:02.592Z,101145.13
2023-02-07T04:42:31.687Z,101149.27
2023-02-07T04:45:00.818Z,101153.16
2023-02-07T04:47:29.353Z,101154.72
2023-02-07T04:49:58.153Z,101155.92
2023-02-07T04:52:27.080Z,101154.94
2023-02-07T04:54:55.629Z,101152.23
2023-02-07T04:57:24.627Z,101147.79
2023-02-07T04:59:53.806Z,101144.29
2023-02-07T05:02:22.444Z,101144.41
2023-02-07T05:04:51.674Z,101145.05
2023-02-07T05:07:20.773Z,101154.22
2023-02-07T05:09:49.856Z,101152.36
2023-02-07T05:12:18.708Z,101155.66
2023-02-07T05:14:47.580Z,101153.36
2023-02-07T05:17:16.709Z,101154.64
2023-02-07T05:19:45.712Z,101155.77
2023-02-07T05:22:14.492Z,101146.41
2023-02-07T05:24:44.170Z,101145.85
2023-02-07T05:27:12.861Z,101141.55
2023-02-07T05:29:41.701Z,101132.66
2023-02-07T05:32:33.280Z,101131.48
2023-02-07T05:35:02.098Z,101133.20
2023-02-07T05:37:31.160Z,101129.47
2023-02-07T05:40:00.073Z,101127.36
2023-02-07T05:42:29.384Z,101128.23
2023-02-07T05:44:57.910Z,101130.81
2023-02-07T05:47:26.915Z,101133.86
2023-02-07T05:49:56.037Z,101139.27
2023-02-07T05:52:24.539Z,101134.60
2023-02-07T05:54:53.621Z,101139.55
2023-02-07T05:57:22.966Z,101136.80
2023-02-07T05:59:51.648Z,101125.59
2023-02-07T06:02:20.396Z,101124.92
2023-02-07T06:04:49.551Z,101126.66
2023-02-07T06:07:18.224Z,101130.57
2023-02-07T06:09:47.254Z,101126.17
2023-02-07T06:12:16.528Z,101127.95
2023-02-07T06:14:45.277Z,101129.89
2023-02-07T06:17:14.128Z,101133.94
2023-02-07T06:19:43.081Z,101132.96
2023-02-07T06:22:12.199Z,101133.10
2023-02-07T06:24:40.843Z,101133.90
2023-02-07T06:27:10.323Z,101132.11
2023-02-07T06:29:39.320Z,101140.30
2023-02-07T06:32:08.214Z,101145.52
2023-02-07T06:34:37.158Z,101151.59
2023-02-07T06:37:06.232Z,101148.77
2023-02-07T06:39:37.668Z,101148.63
2023-02-07T06:42:06.389Z,101151.93
2023-02-07T06:44:35.203Z,101155.32
2023-02-07T06:47:04.748Z,101155.40
2023-02-07T06:49:33.368Z,101166.67
2023-02-07T06:52:02.185Z,101172.03
2023-02-07T06:54:31.227Z,101174.95
2023-02-07T06:57:03.598Z,101174.23
2023-02-07T06:59:32.687Z,101175.45
2023-02-07T07:02:01.413Z,101173.88
2023-02-07T07:04:31.087Z,101176.52
2023-02-07T07:06:59.780Z,101180.91
2023-02-07T07:09:28.378Z,101182.65
2023-02-07T07:11:57.275Z,101185.84
2023-02-07T07:14:26.161Z,101186.65
2023-02-07T07:16:56.885Z,101191.69
2023-02-07T07:19:25.924Z,101198.20
2023-02-07T07:21:55.885Z,101201.39
2023-02-07T07:24:24.912Z,101193.36
2023-02-07T07:26:54.358Z,101196.64
2023-02-07T07:29:23.798Z,101195.43
2023-02-07T07:31:52.689Z,101198.34
2023-02-07T07:34:21.473Z,101198.22
2023-02-07T07:36:50.653Z,101195.14
2023-02-07T07:39:21.238Z,101194.83
2023-02-07T07:41:50.193Z,101196.80
2023-02-07T07:44:21.859Z,101197.44
2023-02-07T07:46:50.808Z,101198.39
2023-02-07T07:49:19.749Z,101200.70
2023-02-07T07:51:48.814Z,101209.17
2023-02-07T07:54:17.379Z,101208.80
2023-02-07T07:56:46.927Z,101214.21
2023-02-07T07:59:23.965Z,101211.27
2023-02-07T08:01:52.809Z,101206.81
2023-02-07T08:04:22.274Z,101207.91
2023-02-07T08:06:50.912Z,101208.30
2023-02-07T08:09:19.788Z,101213.00
2023-02-07T08:11:49.142Z,101205.60
2023-02-07T08:14:18.320Z,101207.13
2023-02-07T08:16:47.244Z,101207.95
2023-02-07T08:19:26.638Z,101209.55
2023-02-07T08:22:02.142Z,101211.73
2023-02-07T08:24:31.261Z,101213.91
2023-02-07T08:26:59.972Z,101208.43
2023-02-07T08:29:29.088Z,101207.48
2023-02-07T08:31:58.144Z,101216.45
2023-02-07T08:34:29.151Z,101216.43
2023-02-07T08:36:57.756Z,101217.17
2023-02-07T08:39:26.576Z,101210.32
2023-02-07T08:41:55.362Z,101206.77
2023-02-07T08:44:23.970Z,101201.88
2023-02-07T08:46:52.822Z,101198.50
2023-02-07T08:49:21.634Z,101200.52
2023-02-07T08:51:50.357Z,101200.11
2023-02-07T08:54:20.000Z,101187.45
2023-02-07T08:56:49.193Z,101188.96
2023-02-07T08:59:17.725Z,101192.42
2023-02-07T09:01:46.545Z,101193.85
2023-02-07T09:04:15.634Z,101189.81
2023-02-07T09:06:44.248Z,101196.67
2023-02-07T09:09:13.197Z,101201.67
2023-02-07T09:11:42.121Z,101198.88
2023-02-07T09:14:10.633Z,101195.93
2023-02-07T09:16:39.367Z,101197.71
2023-02-07T09:19:08.283Z,101203.17
2023-02-07T09:21:37.857Z,101201.05
2023-02-07T09:24:06.723Z,101199.15
2023-02-07T09:26:36.614Z,101196.29
2023-02-07T09:29:06.569Z,101198.71
2023-02-07T09:31:35.335Z,101205.57
2023-02-07T09:34:05.584Z,101210.57
2023-02-07T09:36:34.777Z,101210.05
2023-02-07T09:39:04.985Z,101207.95
2023-02-07T09:41:41.410Z,101209.04
2023-02-07T09:44:28.264Z,101211.90
2023-02-07T09:47:05.831Z,101204.77
2023-02-07T09:49:44.675Z,101203.84
2023-02-07T09:52:34.063Z,101209.39
2023-02-07T09:55:08.627Z,101205.67
2023-02-07T09:57:44.625Z,101207.80
2023-02-07T10:00:27.525Z,101208.95
2023-02-07T10:03:23.552Z,101206.34
2023-02-07T10:06:29.095Z,101200.58
2023-02-07T10:09:14.285Z,101192.83
2023-02-07T10:12:12.691Z,101192.30
2023-02-07T10:14:44.660Z,101190.61
2023-02-07T10:17:32.491Z,101195.12
2023-02-07T10:20:19.789Z,101194.27
2023-02-07T10:23:02.621Z,101199.68
2023-02-07T10:25:48.807Z,101204.60
2023-02-07T10:28:17.923Z,101196.58
2023-02-07T10:31:12.817Z,101198.45
2023-02-07T10:33:47.707Z,101200.16
2023-02-07T10:36:17.568Z,101204.99
2023-02-07T10:38:48.832Z,101200.40
2023-02-07T10:41:36.042Z,101199.71
2023-02-07T10:44:14.216Z,101197.64
2023-02-07T10:46:50.987Z,101198.23
2023-02-07T10:49:26.174Z,101198.00
2023-02-07T10:52:03.453Z,101201.33
2023-02-07T10:54:57.254Z,101198.73
2023-02-07T10:57:28.567Z,101192.48
2023-02-07T11:00:11.108Z,101182.33
2023-02-07T11:02:50.465Z,101176.06
2023-02-07T11:05:21.568Z,101179.33
2023-02-07T11:08:04.589Z,101172.98
2023-02-07T11:10:38.148Z,101167.77
2023-02-07T11:13:18.582Z,101171.73
2023-02-07T11:16:08.211Z,101166.60
2023-02-07T11:18:45.668Z,101164.03
2023-02-07T11:22:33.466Z,101167.54
2023-02-07T11:25:16.020Z,101160.23
2023-02-07T11:27:47.719Z,101159.23
2023-02-07T11:30:20.836Z,101157.48
2023-02-07T11:33:01.583Z,101155.74
2023-02-07T11:35:30.728Z,101152.92
2023-02-07T11:38:05.786Z,101152.95
2023-02-07T11:40:47.687Z,101150.51
2023-02-07T11:43:22.413Z,101150.65
2023-02-07T11:45:58.643Z,101151.65
2023-02-07T11:48:35.420Z,101155.23
2023-02-07T11:51:10.193Z,101150.54
2023-02-07T11:53:51.510Z,101152.01
2023-02-07T11:56:33.213Z,101152.54
2023-02-07T11:59:06.867Z,101160.58
2023-02-07T12:01:39.314Z,101156.47
2023-02-07T12:04:20.778Z,101156.69
2023-02-07T12:07:03.568Z,101155.95
2023-02-07T12:09:47.181Z,101157.64
2023-02-07T12:12:36.569Z,101151.30
2023-02-07T12:15:28.986Z,101148.80
2023-02-07T12:18:15.511Z,101146.91
2023-02-07T12:20:59.597Z,101142.46
2023-02-07T12:23:44.036Z,101136.72
2023-02-07T12:26:27.872Z,101136.46
2023-02-07T12:29:23.454Z,101136.23
2023-02-07T12:31:58.256Z,101130.66
2023-02-07T12:34:54.919Z,101126.70
2023-02-07T12:37:40.523Z,101124.07
2023-02-07T12:40:09.442Z,101124.05
2023-02-07T12:42:45.797Z,101118.63
2023-02-07T12:45:24.096Z,101124.16
2023-02-07T12:48:36.309Z,101124.25
2023-02-07T12:51:21.281Z,101120.04
2023-02-07T12:53:55.838Z,101109.98
2023-02-07T12:56:53.042Z,101110.65
2023-02-07T12:59:46.442Z,101104.23
2023-02-07T13:02:34.007Z,101107.42
2023-02-07T13:05:33.810Z,101104.95
2023-02-07T13:08:02.994Z,101105.24
2023-02-07T13:10:51.508Z,101102.20
2023-02-07T13:14:05.749Z,101099.44
2023-02-07T13:16:40.917Z,101093.77
2023-02-07T13:19:28.961Z,101092.41
2023-02-07T13:22:19.351Z,101094.91
2023-02-07T13:24:49.591Z,101092.38
2023-02-07T13:27:21.065Z,101086.58
2023-02-07T13:29:51.810Z,101084.36
2023-02-07T13:32:28.314Z,101080.34
2023-02-07T13:35:14.162Z,101077.81
2023-02-07T13:37:48.939Z,101074.67
2023-02-07T13:40:28.220Z,101061.89
2023-02-07T13:43:23.910Z,101060.34
2023-02-07T13:46:13.218Z,101056.80
2023-02-07T13:48:52.870Z,101057.80
2023-02-07T13:51:59.650Z,101058.33
2023-02-07T13:54:31.303Z,101057.85
2023-02-07T13:57:20.282Z,101062.34
2023-02-07T14:00:17.659Z,101059.18
2023-02-07T14:02:51.031Z,101063.52
2023-02-07T14:05:28.308Z,101065.13
2023-02-07T14:08:03.451Z,101067.39
2023-02-07T14:10:56.045Z,101068.74
2023-02-07T14:13:30.172Z,101070.39
2023-02-07T14:16:00.863Z,101073.79
2023-02-07T14:18:45.191Z,101071.85
2023-02-07T14:21:22.532Z,101071.60
2023-02-07T14:24:09.448Z,101070.04
2023-02-07T14:26:41.161Z,101071.16
2023-02-07T14:29:25.072Z,101070.77
2023-02-07T14:32:01.234Z,101065.07
2023-02-07T14:35:02.015Z,101063.70
2023-02-07T14:37:49.509Z,101061.30
2023-02-07T14:40:32.633Z,101060.88
2023-02-07T14:43:03.233Z,101063.66
2023-02-07T14:45:36.651Z,101065.06
2023-02-07T14:48:08.324Z,101068.46
2023-02-07T14:50:37.653Z,101071.04
2023-02-07T14:53:06.893Z,101070.92
2023-02-07T14:55:43.258Z,101073.89
2023-02-07T14:58:33.494Z,101074.57
2023-02-07T15:01:03.013Z,101070.91
2023-02-07T15:03:34.020Z,101076.64
2023-02-07T15:06:21.044Z,101083.10
2023-02-07T15:09:00.129Z,101088.38
2023-02-07T15:11:32.510Z,101084.94
2023-02-07T15:14:19.576Z,101083.65
2023-02-07T15:16:48.793Z,101088.21
2023-02-07T15:19:38.795Z,101092.05
2023-02-07T15:22:23.994Z,101099.56
2023-02-07T15:24:59.180Z,101108.41
2023-02-07T15:28:01.947Z,101103.98
2023-02-07T15:30:33.608Z,101102.21
2023-02-07T15:33:11.074Z,101108.61
2023-02-07T15:35:40.084Z,101112.12
2023-02-07T15:38:22.895Z,101112.92
2023-02-07T15:40:53.498Z,101113.26
2023-02-07T15:43:30.101Z,101114.38
2023-02-07T15:46:05.360Z,101119.16
2023-02-07T15:48:46.054Z,101120.59
2023-02-07T15:51:17.287Z,101119.25
2023-02-07T15:53:51.207Z,101124.02
2023-02-07T15:56:20.259Z,101124.56
2023-02-07T15:58:50.063Z,101123.41
2023-02-07T16:01:30.694Z,101126.59
2023-02-07T16:04:00.334Z,101127.25
2023-02-07T16:06:31.323Z,101127.11
2023-02-07T16:09:02.294Z,101129.53
2023-02-07T16:11:31.105Z,101131.90
2023-02-07T16:14:19.621Z,101131.65
2023-02-07T16:16:54.160Z,101124.70
2023-02-07T16:19:31.513Z,101125.23
2023-02-07T16:22:05.399Z,101126.41
2023-02-07T16:24:37.701Z,101125.89
2023-02-07T16:27:07.796Z,101131.13
2023-02-07T16:29:36.627Z,101130.64
2023-02-07T16:32:05.427Z,101135.26
2023-02-07T16:34:34.440Z,101134.90
2023-02-07T16:37:03.429Z,101136.63
2023-02-07T16:39:32.195Z,101137.27
2023-02-07T16:42:13.389Z,101139.08
2023-02-07T16:44:42.150Z,101141.96
2023-02-07T16:47:13.854Z,101141.80
2023-02-07T16:49:45.539Z,101151.45
2023-02-07T16:52:15.291Z,101147.93
2023-02-07T16:54:44.966Z,101150.00
2023-02-07T16:57:14.797Z,101149.13
2023-02-07T16:59:43.776Z,101150.20
2023-02-07T17:02:15.397Z,101147.25
2023-02-07T17:04:44.948Z,101147.23
2023-02-07T17:07:14.088Z,101145.05
2023-02-07T17:09:43.403Z,101147.34
2023-02-07T17:12:15.218Z,101153.03
2023-02-07T17:14:44.544Z,101157.34
2023-02-07T17:17:13.950Z,101154.48
2023-02-07T17:19:43.448Z,101157.41
2023-02-07T17:22:15.655Z,101153.73
2023-02-07T17:24:48.274Z,101156.89
2023-02-07T17:27:17.614Z,101156.36
2023-02-07T17:29:46.650Z,101155.77
2023-02-07T17:32:15.284Z,101151.41
2023-02-07T17:34:44.099Z,101153.55
2023-02-07T17:37:13.344Z,101154.45
2023-02-07T17:39:42.439Z,101155.05
2023-02-07T17:42:11.129Z,101153.70
2023-02-07T17:44:41.496Z,101157.62
2023-02-07T17:47:10.330Z,101159.69
2023-02-07T17:49:39.254Z,101161.60
2023-02-07T17:52:09.385Z,101166.33
2023-02-07T17:54:38.286Z,101168.06
2023-02-07T17:57:07.073Z,101169.33
2023-02-07T17:59:35.958Z,101177.83
2023-02-07T18:02:05.020Z,101180.39
2023-02-07T18:04:48.396Z,101178.37
2023-02-07T18:07:37.536Z,101172.36
2023-02-07T18:10:31.045Z,101173.37
2023-02-07T18:13:18.712Z,101174.71
2023-02-07T18:16:15.782Z,101173.94
2023-02-07T18:19:03.011Z,101172.89
2023-02-07T18:21:50.747Z,101170.08
2023-02-07T18:24:34.291Z,101176.70
2023-02-07T18:27:24.233Z,101185.40
2023-02-07T18:30:17.247Z,101187.98
2023-02-07T18:33:13.492Z,101191.73
2023-02-07T18:36:08.961Z,101191.09
2023-02-07T18:39:04.457Z,101193.88
2023-02-07T18:41:49.922Z,101197.70
2023-02-07T18:44:29.379Z,101200.89
2023-02-07T18:46:58.452Z,101199.02
2023-02-07T18:49:35.042Z,101200.92
2023-02-07T18:52:04.562Z,101205.45
2023-02-07T18:54:33.371Z,101203.11
2023-02-07T18:57:05.132Z,101210.14
2023-02-07T18:59:35.332Z,101210.48
2023-02-07T19:02:06.879Z,101211.70
2023-02-07T19:04:35.742Z,101211.27
2023-02-07T19:07:06.532Z,101215.70
2023-02-07T19:09:35.548Z,101215.45
2023-02-07T19:12:05.629Z,101217.58
2023-02-07T19:14:35.880Z,101215.38
2023-02-07T19:17:05.291Z,101218.39
2023-02-07T19:19:35.160Z,101215.20
2023-02-07T19:22:04.055Z,101216.31
2023-02-07T19:24:32.782Z,101218.31
2023-02-07T19:27:01.741Z,101216.67
2023-02-07T19:29:30.860Z,101214.30
2023-02-07T19:32:03.724Z,101212.77
2023-02-07T19:34:32.989Z,101209.41
2023-02-07T19:37:02.820Z,101212.84
2023-02-07T19:39:31.816Z,101212.04
2023-02-07T19:42:03.198Z,101214.11
2023-02-07T19:44:32.003Z,101203.47
2023-02-07T19:47:00.962Z,101201.69
2023-02-07T19:49:30.267Z,101200.18
2023-02-07T19:51:58.963Z,101207.17
2023-02-07T19:54:28.356Z,101204.75
2023-02-07T19:56:57.485Z,101206.30
2023-02-07T19:59:26.188Z,101207.51
2023-02-07T20:01:56.300Z,101208.77
2023-02-07T20:04:27.891Z,101204.31
2023-02-07T20:06:57.630Z,101201.17
2023-02-07T20:09:26.192Z,101202.79
2023-02-07T20:11:55.386Z,101205.10
2023-02-07T20:14:25.021Z,101202.98
2023-02-07T20:16:53.678Z,101203.97
2023-02-07T20:19:22.910Z,101202.25
2023-02-07T20:21:51.901Z,101200.91
2023-02-07T20:24:21.014Z,101201.50
2023-02-07T20:26:52.867Z,101203.44
2023-02-07T20:29:23.482Z,101205.84
2023-02-07T20:31:53.152Z,101199.30
2023-02-07T20:34:22.093Z,101200.88
2023-02-07T20:36:52.643Z,101201.92
2023-02-07T20:39:23.804Z,101203.23
2023-02-07T20:41:52.877Z,101206.40
2023-02-07T20:44:26.880Z,101211.84
2023-02-07T20:46:57.906Z,101211.73
2023-02-07T20:49:29.622Z,101213.18
2023-02-07T20:51:59.598Z,101220.27
2023-02-07T20:54:29.776Z,101216.77
2023-02-07T20:56:58.835Z,101213.92
2023-02-07T20:59:30.358Z,101215.64
2023-02-07T21:02:00.176Z,101221.85
2023-02-07T21:04:29.889Z,101222.00
2023-02-07T21:06:58.699Z,101217.66
2023-02-07T21:09:28.085Z,101213.48
2023-02-07T21:11:58.464Z,101214.23
2023-02-07T21:14:31.239Z,101213.83
2023-02-07T21:17:06.527Z,101215.98
2023-02-07T21:19:37.056Z,101214.30
2023-02-07T21:22:07.169Z,101218.31
2023-02-07T21:24:36.136Z,101213.07
2023-02-07T21:27:05.986Z,101221.45
2023-02-07T21:29:36.675Z,101218.94
2023-02-07T21:32:05.619Z,101221.84
2023-02-07T21:34:34.621Z,101224.48
2023-02-07T21:37:03.472Z,101230.98
2023-02-07T21:39:32.469Z,101229.39
2023-02-07T21:42:01.575Z,101231.95
2023-02-07T21:44:30.261Z,101225.09
2023-02-07T21:46:59.085Z,101225.65
2023-02-07T21:49:27.830Z,101222.73
2023-02-07T21:51:56.802Z,101221.27
2023-02-07T21:54:25.713Z,101220.10
2023-02-07T21:56:54.821Z,101228.46
2023-02-07T21:59:23.856Z,101230.83
2023-02-07T22:01:55.581Z,101230.91
2023-02-07T22:04:24.290Z,101232.27
2023-02-07T22:06:53.032Z,101233.98
2023-02-07T22:09:24.023Z,101228.66
2023-02-07T22:11:54.769Z,101234.28
2023-02-07T22:14:26.392Z,101238.80
2023-02-07T22:16:55.492Z,101235.70
2023-02-07T22:19:27.336Z,101235.95
2023-02-07T22:21:56.916Z,101228.91
2023-02-07T22:24:25.493Z,101239.50
2023-02-07T22:26:54.454Z,101239.11
2023-02-07T22:29:23.405Z,101240.59
2023-02-07T22:31:52.076Z,101234.50
2023-02-07T22:34:20.958Z,101233.84
2023-02-07T22:36:50.224Z,101231.77
2023-02-07T22:39:19.411Z,101234.05
2023-02-07T22:41:48.177Z,101237.05
2023-02-07T22:44:17.507Z,101236.17
2023-02-07T22:46:46.143Z,101234.75
2023-02-07T22:49:14.725Z,101229.45
2023-02-07T22:51:46.640Z,101232.57
2023-02-07T22:54:18.015Z,101234.47
2023-02-07T22:56:47.585Z,101237.14
2023-02-07T22:59:16.274Z,101241.16
2023-02-07T23:01:45.752Z,101239.87
2023-02-07T23:04:17.998Z,101236.16
2023-02-07T23:06:47.323Z,101235.20
2023-02-07T23:09:16.825Z,101237.37
2023-02-07T23:11:45.957Z,101237.19
2023-02-07T23:14:16.632Z,101244.79
2023-02-07T23:16:46.031Z,101247.81
2023-02-07T23:19:17.373Z,101245.14
2023-02-07T23:21:46.155Z,101245.44
2023-02-07T23:24:15.381Z,101246.05
2023-02-07T23:26:44.368Z,101246.25
2023-02-07T23:29:13.031Z,101246.23
2023-02-07T23:31:42.356Z,101245.83
2023-02-07T23:34:11.565Z,101246.70
2023-02-07T23:36:40.397Z,101244.93
2023-02-07T23:39:10.148Z,101249.59
2023-02-07T23:41:39.062Z,101246.80
2023-02-07T23:44:07.919Z,101243.16
2023-02-07T23:46:37.481Z,101244.52
2023-02-07T23:49:06.964Z,101246.10
2023-02-07T23:51:36.427Z,101249.61
2023-02-07T23:54:05.374Z,101251.14
2023-02-07T23:56:34.433Z,101258.45
2023-02-07T23:59:03.058Z,101253.56
